createdAt,value
2018-04-14T00:02:15.003Z,13.47
2018-04-14T00:04:43.431Z,13.47
2018-04-14T00:07:11.834Z,13.61
2018-04-14T00:09:40.228Z,13.29
2018-04-14T00:12:08.667Z,13.27
2018-04-14T00:14:37.144Z,13.26
2018-04-14T00:17:05.515Z,13.35
2018-04-14T00:19:33.919Z,13.33
2018-04-14T00:22:02.320Z,13.27
2018-04-14T00:24:30.754Z,13.21
2018-04-14T00:26:59.159Z,13.25
2018-04-14T00:29:27.515Z,13.14
2018-04-14T00:31:55.918Z,13.36
2018-04-14T00:34:24.367Z,12.84
2018-04-14T00:36:52.776Z,13.00
2018-04-14T00:39:21.192Z,13.16
2018-04-14T00:41:49.652Z,13.22
2018-04-14T00:44:18.034Z,13.08
2018-04-14T00:46:46.486Z,13.30
2018-04-14T00:49:14.875Z,13.37
2018-04-14T00:51:43.275Z,13.06
2018-04-14T00:54:11.688Z,12.70
2018-04-14T00:56:40.100Z,12.87
2018-04-14T00:59:08.554Z,13.16
2018-04-14T01:01:37.075Z,12.89
2018-04-14T01:04:05.502Z,12.92
2018-04-14T01:06:33.864Z,12.65
2018-04-14T01:09:02.436Z,12.22
2018-04-14T01:11:30.891Z,12.60
2018-04-14T01:13:59.306Z,12.79
2018-04-14T01:16:27.738Z,12.78
2018-04-14T01:18:56.165Z,12.51
2018-04-14T01:21:24.570Z,12.24
2018-04-14T01:23:52.934Z,12.22
2018-04-14T01:26:21.376Z,12.23
2018-04-14T01:28:50.485Z,12.17
2018-04-14T01:31:18.919Z,12.46
2018-04-14T01:33:47.343Z,12.48
2018-04-14T01:36:16.156Z,12.61
2018-04-14T01:38:44.560Z,12.63
2018-04-14T01:41:12.999Z,12.53
2018-04-14T01:43:41.386Z,12.47
2018-04-14T01:46:09.776Z,12.19
2018-04-14T01:48:38.202Z,12.18
2018-04-14T01:51:06.631Z,12.33
2018-04-14T01:53:35.027Z,12.00
2018-04-14T01:56:03.421Z,11.95
2018-04-14T01:58:31.878Z,11.95
2018-04-14T02:01:00.274Z,12.06
2018-04-14T02:03:28.715Z,12.28
2018-04-14T02:05:57.155Z,12.15
2018-04-14T02:08:25.536Z,12.04
2018-04-14T02:10:53.963Z,12.22
2018-04-14T02:13:22.530Z,12.28
2018-04-14T02:15:50.934Z,12.38
2018-04-14T02:18:19.361Z,12.29
2018-04-14T02:20:47.807Z,12.11
2018-04-14T02:23:16.212Z,12.19
2018-04-14T02:25:44.651Z,12.17
2018-04-14T02:28:13.030Z,11.95
2018-04-14T02:30:41.421Z,12.20
2018-04-14T02:33:09.859Z,12.06
2018-04-14T02:35:38.284Z,12.24
2018-04-14T02:38:06.667Z,12.24
2018-04-14T02:40:35.099Z,12.06
2018-04-14T02:43:03.486Z,11.94
2018-04-14T02:45:31.914Z,11.82
2018-04-14T02:48:00.284Z,11.93
2018-04-14T02:50:28.695Z,11.97
2018-04-14T02:52:57.080Z,11.79
2018-04-14T02:55:25.499Z,12.04
2018-04-14T02:57:53.874Z,12.08
2018-04-14T03:00:22.273Z,11.94
2018-04-14T03:02:50.678Z,11.96
2018-04-14T03:05:19.071Z,11.71
2018-04-14T03:07:47.514Z,11.77
2018-04-14T03:10:15.959Z,11.65
2018-04-14T03:12:44.342Z,11.59
2018-04-14T03:15:13.060Z,11.67
2018-04-14T03:17:41.527Z,11.86
2018-04-14T03:20:09.914Z,11.88
2018-04-14T03:22:38.307Z,11.72
2018-04-14T03:25:06.738Z,11.69
2018-04-14T03:27:35.143Z,11.60
2018-04-14T03:30:03.968Z,11.72
2018-04-14T03:32:32.363Z,11.78
2018-04-14T03:35:01.614Z,11.45
2018-04-14T03:37:30.539Z,11.53
2018-04-14T03:39:58.911Z,11.18
2018-04-14T03:42:27.291Z,11.62
2018-04-14T03:44:56.091Z,11.50
2018-04-14T03:47:25.271Z,11.74
2018-04-14T03:49:53.694Z,11.53
2018-04-14T03:52:22.242Z,11.39
2018-04-14T03:54:50.635Z,11.50
2018-04-14T03:57:19.019Z,11.64
2018-04-14T03:59:47.786Z,11.81
2018-04-14T04:02:17.139Z,11.78
2018-04-14T04:04:45.529Z,11.73
2018-04-14T04:07:14.165Z,11.62
2018-04-14T04:09:42.529Z,11.47
2018-04-14T04:12:10.900Z,11.51
2018-04-14T04:14:39.366Z,11.52
2018-04-14T04:17:07.749Z,11.39
2018-04-14T04:19:49.072Z,11.50
2018-04-14T04:22:29.347Z,11.59
2018-04-14T04:25:09.252Z,11.66
2018-04-14T04:27:37.339Z,11.96
2018-04-14T04:30:05.427Z,12.17
2018-04-14T04:32:33.571Z,12.47
2018-04-14T04:35:01.656Z,12.47
2018-04-14T04:37:29.799Z,12.70
2018-04-14T04:39:57.963Z,12.89
2018-04-14T04:42:26.083Z,12.95
2018-04-14T04:44:54.235Z,12.96
2018-04-14T04:47:22.395Z,13.10
2018-04-14T04:49:50.491Z,13.04
2018-04-14T04:52:18.645Z,13.23
2018-04-14T04:54:46.786Z,13.62
2018-04-14T04:57:14.934Z,13.71
2018-04-14T04:59:43.010Z,13.84
2018-04-14T05:02:11.112Z,13.97
2018-04-14T05:04:39.247Z,13.96
2018-04-14T05:07:07.338Z,13.98
2018-04-14T05:09:35.422Z,14.25
2018-04-14T05:12:03.552Z,14.33
2018-04-14T05:14:31.651Z,14.31
2018-04-14T05:16:59.794Z,14.73
2018-04-14T05:19:27.896Z,14.75
2018-04-14T05:21:56.042Z,15.01
2018-04-14T05:24:24.175Z,14.78
2018-04-14T05:26:52.274Z,15.05
2018-04-14T05:29:20.412Z,15.26
2018-04-14T05:31:48.492Z,15.57
2018-04-14T05:34:16.637Z,15.20
2018-04-14T05:36:44.743Z,15.50
2018-04-14T05:39:12.823Z,15.53
2018-04-14T05:41:41.037Z,16.06
2018-04-14T05:44:09.170Z,16.19
2018-04-14T05:46:37.306Z,16.43
2018-04-14T05:49:05.394Z,16.49
2018-04-14T05:51:33.578Z,16.65
2018-04-14T05:54:01.715Z,16.77
2018-04-14T05:56:29.839Z,16.98
2018-04-14T05:58:57.980Z,17.00
2018-04-14T06:01:26.110Z,17.22
2018-04-14T06:03:54.299Z,17.25
2018-04-14T06:06:22.502Z,16.65
2018-04-14T06:08:50.624Z,16.78
2018-04-14T06:11:18.739Z,16.76
2018-04-14T06:13:46.863Z,16.81
2018-04-14T06:16:15.039Z,16.94
2018-04-14T06:18:43.182Z,16.85
2018-04-14T06:21:11.290Z,16.98
2018-04-14T06:23:39.439Z,16.63
2018-04-14T06:26:07.557Z,16.76
2018-04-14T06:28:35.638Z,16.85
2018-04-14T06:31:03.772Z,17.03
2018-04-14T06:33:31.883Z,17.57
2018-04-14T06:36:00.057Z,17.59
2018-04-14T06:38:28.192Z,18.04
2018-04-14T06:40:56.267Z,18.16
2018-04-14T06:43:24.373Z,18.42
2018-04-14T06:45:52.548Z,18.34
2018-04-14T06:48:20.653Z,17.99
2018-04-14T06:50:48.824Z,17.98
2018-04-14T06:53:16.930Z,18.27
2018-04-14T06:55:45.062Z,18.48
2018-04-14T06:58:13.213Z,18.87
2018-04-14T07:00:41.289Z,19.13
2018-04-14T07:03:09.511Z,19.25
2018-04-14T07:05:37.621Z,19.28
2018-04-14T07:08:05.812Z,19.74
2018-04-14T07:10:33.934Z,19.97
2018-04-14T07:13:02.099Z,20.26
2018-04-14T07:15:30.324Z,20.41
2018-04-14T07:17:58.478Z,20.49
2018-04-14T07:20:26.562Z,20.66
2018-04-14T07:22:54.835Z,20.81
2018-04-14T07:25:22.998Z,20.39
2018-04-14T07:27:51.162Z,20.84
2018-04-14T07:30:19.300Z,21.13
2018-04-14T07:32:47.446Z,21.61
2018-04-14T07:35:15.571Z,21.53
2018-04-14T07:37:43.671Z,20.89
2018-04-14T07:40:11.791Z,20.57
2018-04-14T07:42:39.935Z,20.61
2018-04-14T07:45:08.092Z,21.06
2018-04-14T07:47:36.310Z,21.31
2018-04-14T07:50:04.531Z,21.45
2018-04-14T07:52:32.647Z,21.56
2018-04-14T07:55:00.767Z,21.64
2018-04-14T07:57:28.917Z,21.96
2018-04-14T07:59:57.005Z,21.94
2018-04-14T08:02:25.147Z,21.96
2018-04-14T08:04:53.290Z,22.22
2018-04-14T08:07:22.570Z,22.55
2018-04-14T08:09:50.678Z,22.55
2018-04-14T08:12:18.763Z,22.88
2018-04-14T08:14:46.954Z,22.89
2018-04-14T08:17:15.060Z,23.11
2018-04-14T08:19:43.248Z,22.69
2018-04-14T08:22:11.415Z,23.09
2018-04-14T08:24:39.513Z,23.34
2018-04-14T08:27:07.642Z,23.25
2018-04-14T08:29:35.895Z,23.65
2018-04-14T08:32:04.058Z,23.43
2018-04-14T08:34:32.255Z,23.88
2018-04-14T08:37:00.394Z,24.04
2018-04-14T08:39:28.814Z,23.84
2018-04-14T08:41:56.963Z,23.42
2018-04-14T08:44:25.103Z,23.73
2018-04-14T08:46:53.215Z,23.45
2018-04-14T08:49:21.382Z,23.82
2018-04-14T08:51:49.455Z,24.15
2018-04-14T08:54:17.589Z,23.79
2018-04-14T08:56:45.690Z,23.97
2018-04-14T08:59:13.814Z,24.36
2018-04-14T09:01:41.956Z,24.62
2018-04-14T09:04:10.091Z,24.85
2018-04-14T09:06:38.202Z,25.05
2018-04-14T09:09:06.403Z,25.48
2018-04-14T09:11:34.581Z,24.96
2018-04-14T09:14:02.711Z,25.15
2018-04-14T09:16:30.804Z,25.09
2018-04-14T09:18:59.330Z,24.99
2018-04-14T09:21:27.715Z,24.62
2018-04-14T09:23:56.234Z,24.69
2018-04-14T09:26:24.682Z,24.96
2018-04-14T09:28:53.047Z,25.16
2018-04-14T09:31:21.455Z,24.89
2018-04-14T09:33:50.686Z,25.40
2018-04-14T09:36:19.082Z,25.27
2018-04-14T09:38:47.468Z,25.60
2018-04-14T09:41:16.016Z,25.57
2018-04-14T09:43:44.479Z,25.24
2018-04-14T09:46:12.866Z,25.52
2018-04-14T09:48:41.234Z,25.39
2018-04-14T09:51:09.647Z,25.85
2018-04-14T09:53:38.031Z,25.99
2018-04-14T09:56:06.506Z,25.95
2018-04-14T09:58:34.979Z,26.16
2018-04-14T10:01:09.001Z,26.45
2018-04-14T10:03:37.416Z,26.77
2018-04-14T10:06:05.847Z,26.56
2018-04-14T10:08:34.247Z,26.02
2018-04-14T10:11:02.633Z,25.72
2018-04-14T10:13:31.069Z,26.23
2018-04-14T10:15:59.483Z,26.66
2018-04-14T10:18:27.863Z,26.94
2018-04-14T10:20:56.306Z,27.38
2018-04-14T10:23:24.731Z,27.20
2018-04-14T10:25:53.160Z,27.46
2018-04-14T10:28:21.555Z,27.06
2018-04-14T10:30:50.043Z,26.67
2018-04-14T10:33:18.463Z,26.92
2018-04-14T10:35:46.831Z,27.26
2018-04-14T10:38:15.410Z,27.27
2018-04-14T10:40:43.828Z,27.66
2018-04-14T10:43:12.268Z,27.93
2018-04-14T10:45:40.704Z,27.32
2018-04-14T10:48:09.112Z,27.56
2018-04-14T10:50:37.545Z,27.55
2018-04-14T10:53:06.046Z,28.21
2018-04-14T10:55:34.432Z,28.98
2018-04-14T10:58:02.791Z,29.37
2018-04-14T11:00:31.218Z,29.62
2018-04-14T11:02:59.712Z,29.15
2018-04-14T11:05:28.068Z,29.63
2018-04-14T11:07:56.516Z,29.92
2018-04-14T11:10:24.935Z,30.00
2018-04-14T11:12:53.359Z,29.74
2018-04-14T11:15:21.756Z,29.66
2018-04-14T11:17:50.150Z,30.04
2018-04-14T11:20:18.613Z,30.38
2018-04-14T11:22:47.027Z,30.09
2018-04-14T11:25:15.414Z,29.71
2018-04-14T11:27:43.853Z,29.83
2018-04-14T11:30:12.251Z,29.75
2018-04-14T11:32:41.276Z,29.03
2018-04-14T11:35:09.700Z,28.22
2018-04-14T11:37:38.066Z,29.49
2018-04-14T11:40:06.458Z,29.97
2018-04-14T11:42:34.909Z,30.22
2018-04-14T11:45:03.295Z,31.03
2018-04-14T11:47:31.778Z,31.70
2018-04-14T11:50:00.147Z,31.27
2018-04-14T11:52:28.627Z,31.39
2018-04-14T11:54:57.086Z,32.34
2018-04-14T11:57:25.541Z,32.74
2018-04-14T11:59:53.963Z,33.53
2018-04-14T12:02:22.357Z,34.03
2018-04-14T12:04:50.777Z,34.54
2018-04-14T12:07:19.161Z,33.94
2018-04-14T12:09:47.588Z,33.28
2018-04-14T12:12:15.986Z,34.26
2018-04-14T12:14:44.509Z,33.66
2018-04-14T12:17:13.015Z,34.19
2018-04-14T12:19:41.401Z,31.94
2018-04-14T12:22:09.839Z,32.37
2018-04-14T12:24:38.226Z,33.43
2018-04-14T12:27:06.662Z,33.49
2018-04-14T12:29:35.059Z,33.41
2018-04-14T12:32:03.442Z,32.49
2018-04-14T12:34:31.876Z,33.10
2018-04-14T12:37:00.282Z,33.24
2018-04-14T12:39:28.658Z,34.48
2018-04-14T12:41:57.137Z,34.58
2018-04-14T12:44:25.520Z,33.76
2018-04-14T12:46:53.910Z,33.17
2018-04-14T12:49:22.264Z,33.95
2018-04-14T12:51:50.647Z,34.46
2018-04-14T12:54:19.091Z,34.88
2018-04-14T12:56:47.510Z,34.18
2018-04-14T12:59:15.891Z,34.26
2018-04-14T13:01:44.299Z,34.76
2018-04-14T13:04:12.743Z,36.12
2018-04-14T13:06:41.118Z,35.40
2018-04-14T13:09:09.731Z,35.39
2018-04-14T13:11:38.107Z,35.47
2018-04-14T13:14:06.512Z,35.37
2018-04-14T13:16:34.872Z,33.93
2018-04-14T13:19:03.291Z,33.00
2018-04-14T13:21:31.787Z,32.64
2018-04-14T13:24:00.144Z,32.41
2018-04-14T13:26:28.643Z,31.49
2018-04-14T13:28:57.014Z,31.45
2018-04-14T13:31:25.435Z,30.65
2018-04-14T13:33:53.905Z,30.40
2018-04-14T13:36:22.267Z,30.16
2018-04-14T13:38:50.643Z,30.44
2018-04-14T13:41:19.079Z,29.91
2018-04-14T13:43:47.455Z,29.29
2018-04-14T13:46:15.891Z,28.78
2018-04-14T13:48:44.319Z,28.50
2018-04-14T13:51:12.728Z,28.55
2018-04-14T13:53:41.078Z,27.88
2018-04-14T13:56:09.484Z,27.92
2018-04-14T13:58:37.847Z,27.72
2018-04-14T14:01:06.515Z,27.99
2018-04-14T14:03:34.917Z,27.86
2018-04-14T14:06:03.327Z,27.70
2018-04-14T14:08:31.699Z,27.12
2018-04-14T14:11:00.127Z,27.08
2018-04-14T14:13:28.524Z,27.31
2018-04-14T14:15:56.936Z,27.61
2018-04-14T14:18:25.345Z,27.04
2018-04-14T14:20:53.798Z,27.43
2018-04-14T14:23:22.186Z,27.90
2018-04-14T14:25:50.591Z,28.37
2018-04-14T14:28:18.955Z,28.42
2018-04-14T14:30:47.431Z,28.21
2018-04-14T14:33:15.897Z,28.20
2018-04-14T14:35:44.274Z,27.93
2018-04-14T14:38:12.707Z,27.50
2018-04-14T14:40:41.138Z,27.30
2018-04-14T14:43:09.546Z,28.43
2018-04-14T14:45:37.943Z,28.07
2018-04-14T14:48:06.439Z,27.04
2018-04-14T14:50:34.851Z,26.73
2018-04-14T14:53:03.262Z,27.30
2018-04-14T14:55:31.618Z,28.97
2018-04-14T14:58:00.042Z,29.74
2018-04-14T15:00:28.490Z,29.67
2018-04-14T15:02:56.933Z,29.16
2018-04-14T15:05:25.319Z,28.64
2018-04-14T15:07:53.771Z,28.60
2018-04-14T15:10:22.171Z,27.11
2018-04-14T15:12:50.593Z,27.03
2018-04-14T15:15:19.097Z,26.83
2018-04-14T15:17:47.503Z,26.68
2018-04-14T15:20:15.958Z,26.57
2018-04-14T15:22:44.396Z,27.06
2018-04-14T15:25:12.798Z,27.50
2018-04-14T15:27:41.219Z,28.11
2018-04-14T15:30:09.654Z,28.14
2018-04-14T15:32:38.075Z,28.01
2018-04-14T15:35:06.516Z,27.39
2018-04-14T15:37:34.919Z,26.06
2018-04-14T15:40:03.323Z,23.87
2018-04-14T15:42:31.739Z,22.07
2018-04-14T15:45:00.284Z,21.82
2018-04-14T15:47:28.724Z,20.89
2018-04-14T15:49:57.258Z,19.57
2018-04-14T15:52:25.639Z,19.48
2018-04-14T15:54:54.176Z,20.09
2018-04-14T15:57:22.559Z,20.13
2018-04-14T15:59:50.968Z,20.06
2018-04-14T16:02:19.728Z,19.75
2018-04-14T16:04:48.123Z,19.91
2018-04-14T16:07:16.490Z,20.60
2018-04-14T16:09:45.366Z,20.48
2018-04-14T16:12:13.733Z,20.64
2018-04-14T16:14:42.131Z,21.35
2018-04-14T16:17:10.543Z,20.83
2018-04-14T16:19:38.967Z,20.97
2018-04-14T16:22:07.407Z,20.74
2018-04-14T16:24:36.272Z,20.57
2018-04-14T16:27:04.639Z,19.27
2018-04-14T16:29:33.017Z,19.48
2018-04-14T16:32:01.816Z,18.88
2018-04-14T16:34:30.197Z,18.66
2018-04-14T16:36:58.580Z,18.40
2018-04-14T16:39:27.161Z,18.51
2018-04-14T16:41:55.535Z,18.66
2018-04-14T16:44:23.900Z,19.02
2018-04-14T16:46:52.483Z,19.30
2018-04-14T16:49:20.933Z,19.40
2018-04-14T16:51:49.342Z,19.37
2018-04-14T16:54:17.958Z,19.02
2018-04-14T16:56:46.338Z,18.87
2018-04-14T16:59:14.714Z,19.00
2018-04-14T17:01:43.124Z,18.98
2018-04-14T17:04:11.531Z,18.98
2018-04-14T17:06:40.161Z,18.97
2018-04-14T17:09:08.564Z,18.93
2018-04-14T17:11:37.007Z,18.88
2018-04-14T17:14:05.408Z,18.96
2018-04-14T17:16:33.816Z,18.94
2018-04-14T17:19:02.242Z,18.84
2018-04-14T17:21:30.643Z,18.89
2018-04-14T17:23:59.041Z,18.92
2018-04-14T17:26:27.407Z,18.94
2018-04-14T17:28:55.837Z,18.91
2018-04-14T17:31:24.859Z,18.81
2018-04-14T17:33:53.257Z,18.45
2018-04-14T17:36:21.663Z,18.76
2018-04-14T17:38:50.062Z,18.70
2018-04-14T17:41:18.496Z,18.47
2018-04-14T17:43:46.875Z,18.53
2018-04-14T17:46:15.235Z,18.59
2018-04-14T17:48:43.650Z,18.40
2018-04-14T17:51:12.022Z,18.54
2018-04-14T17:53:40.487Z,18.46
2018-04-14T17:56:08.956Z,18.43
2018-04-14T17:58:37.427Z,18.37
2018-04-14T18:01:05.829Z,18.55
2018-04-14T18:03:34.238Z,18.39
2018-04-14T18:06:02.687Z,18.36
2018-04-14T18:08:31.054Z,18.39
2018-04-14T18:10:59.490Z,18.38
2018-04-14T18:13:27.921Z,18.23
2018-04-14T18:15:56.424Z,18.28
2018-04-14T18:18:24.908Z,18.19
2018-04-14T18:20:53.301Z,18.17
2018-04-14T18:23:21.767Z,18.16
2018-04-14T18:25:50.208Z,18.10
2018-04-14T18:28:18.629Z,17.99
2018-04-14T18:30:47.010Z,17.97
2018-04-14T18:33:15.423Z,17.98
2018-04-14T18:35:43.973Z,17.99
2018-04-14T18:38:12.356Z,17.96
2018-04-14T18:40:40.791Z,17.90
2018-04-14T18:43:09.273Z,17.91
2018-04-14T18:45:37.630Z,17.82
2018-04-14T18:48:06.020Z,17.74
2018-04-14T18:50:34.448Z,17.77
2018-04-14T18:53:02.828Z,17.71
2018-04-14T18:55:31.247Z,17.58
2018-04-14T18:57:59.666Z,17.68
2018-04-14T19:00:28.091Z,17.63
2018-04-14T19:02:56.526Z,17.63
2018-04-14T19:05:24.918Z,17.69
2018-04-14T19:07:53.319Z,17.71
2018-04-14T19:10:21.777Z,17.76
2018-04-14T19:12:50.143Z,17.74
2018-04-14T19:15:18.535Z,17.73
2018-04-14T19:17:46.980Z,17.73
2018-04-14T19:20:15.465Z,17.64
2018-04-14T19:22:43.870Z,17.95
2018-04-14T19:25:12.316Z,17.97
2018-04-14T19:27:40.718Z,18.01
2018-04-14T19:30:09.157Z,18.01
2018-04-14T19:32:37.576Z,17.97
2018-04-14T19:35:05.974Z,18.05
2018-04-14T19:37:34.479Z,18.09
2018-04-14T19:40:02.899Z,18.14
2018-04-14T19:42:31.291Z,18.20
2018-04-14T19:44:59.719Z,18.06
2018-04-14T19:47:28.091Z,18.15
2018-04-14T19:49:56.507Z,18.07
2018-04-14T19:52:24.952Z,18.05
2018-04-14T19:54:53.379Z,18.25
2018-04-14T19:57:21.741Z,18.32
2018-04-14T19:59:50.152Z,18.29
2018-04-14T20:02:18.523Z,18.39
2018-04-14T20:04:46.964Z,18.41
2018-04-14T20:07:15.327Z,18.28
2018-04-14T20:09:43.736Z,18.21
2018-04-14T20:12:12.198Z,18.43
2018-04-14T20:14:40.597Z,18.50
2018-04-14T20:17:08.975Z,18.42
2018-04-14T20:19:37.527Z,18.44
2018-04-14T20:22:05.907Z,18.51
2018-04-14T20:24:34.336Z,18.52
2018-04-14T20:27:02.705Z,18.51
2018-04-14T20:29:31.079Z,18.54
2018-04-14T20:31:59.495Z,18.58
2018-04-14T20:34:27.888Z,18.53
2018-04-14T20:36:56.286Z,18.56
2018-04-14T20:39:24.702Z,18.56
2018-04-14T20:41:53.080Z,18.52
2018-04-14T20:44:21.519Z,18.45
2018-04-14T20:46:49.944Z,18.41
2018-04-14T20:49:18.319Z,18.23
2018-04-14T20:54:21.429Z,18.02
2018-04-14T20:56:49.835Z,17.93
2018-04-14T20:59:18.279Z,17.87
2018-04-14T21:01:46.689Z,17.86
2018-04-14T21:04:15.114Z,17.81
2018-04-14T21:06:43.496Z,17.78
2018-04-14T21:09:11.915Z,17.71
2018-04-14T21:11:40.304Z,17.75
2018-04-14T21:14:08.666Z,17.82
2018-04-14T21:16:37.063Z,17.80
2018-04-14T21:19:05.519Z,17.78
2018-04-14T21:21:33.964Z,17.73
2018-04-14T21:24:02.335Z,17.81
2018-04-14T21:26:30.742Z,17.73
2018-04-14T21:28:59.127Z,17.80
2018-04-14T21:31:27.570Z,17.71
2018-04-14T21:33:55.947Z,17.69
2018-04-14T21:36:24.392Z,17.63
2018-04-14T21:38:52.783Z,17.66
2018-04-14T21:41:21.244Z,17.72
2018-04-14T21:43:49.663Z,17.82
2018-04-14T21:46:18.117Z,17.74
2018-04-14T21:48:46.690Z,17.68
2018-04-14T21:51:15.135Z,17.72
2018-04-14T21:53:43.591Z,17.67
2018-04-14T21:56:11.967Z,17.76
2018-04-14T21:58:40.371Z,17.64
2018-04-14T22:01:08.808Z,17.54
2018-04-14T22:03:37.242Z,17.51
2018-04-14T22:06:05.651Z,17.41
2018-04-14T22:08:34.080Z,17.47
2018-04-14T22:11:02.478Z,17.51
2018-04-14T22:13:30.974Z,17.51
2018-04-14T22:15:59.366Z,17.38
2018-04-14T22:18:27.749Z,17.27
2018-04-14T22:20:56.147Z,17.31
2018-04-14T22:23:24.579Z,17.30
2018-04-14T22:25:53.038Z,16.93
2018-04-14T22:28:21.474Z,17.08
2018-04-14T22:30:49.889Z,17.09
2018-04-14T22:33:18.319Z,17.05
2018-04-14T22:35:46.742Z,16.57
2018-04-14T22:38:15.191Z,16.62
2018-04-14T22:40:43.561Z,16.74
2018-04-14T22:43:11.973Z,16.64
2018-04-14T22:45:40.403Z,16.44
2018-04-14T22:48:08.815Z,16.27
2018-04-14T22:50:37.241Z,16.12
2018-04-14T22:53:05.621Z,16.03
2018-04-14T22:55:34.045Z,16.26
2018-04-14T22:58:02.956Z,15.89
2018-04-14T23:00:31.364Z,16.04
2018-04-14T23:02:59.862Z,16.12
2018-04-14T23:05:28.289Z,15.87
2018-04-14T23:07:56.686Z,15.85
2018-04-14T23:10:25.140Z,15.68
2018-04-14T23:12:53.523Z,15.98
2018-04-14T23:15:21.940Z,15.63
2018-04-14T23:17:50.385Z,15.99
2018-04-14T23:20:18.759Z,15.83
2018-04-14T23:22:47.183Z,16.00
2018-04-14T23:25:15.563Z,15.97
2018-04-14T23:27:43.987Z,15.92
2018-04-14T23:30:12.411Z,15.83
2018-04-14T23:32:40.858Z,15.52
2018-04-14T23:35:09.242Z,15.39
2018-04-14T23:37:37.636Z,15.61
2018-04-14T23:40:06.075Z,15.13
2018-04-14T23:42:34.509Z,15.06
2018-04-14T23:45:02.893Z,15.33
2018-04-14T23:47:31.394Z,15.13
2018-04-14T23:49:59.842Z,15.14
2018-04-14T23:52:28.201Z,15.15
2018-04-14T23:54:56.629Z,15.08
2018-04-14T23:57:25.053Z,15.05
2018-04-14T23:59:53.508Z,14.72
